Air Quality Table

TIMESTAMP NO2 SO2 O3 PM10 TEMP HUM AIRPRES WS WD NO
2021-08-02 01:00 16.14 ug/m3 1.54 ug/m3 71.56 ug/m3 66.89 ug/m3 31.92 C 52.02 % 1,004.12 mbar 2.24 m/s 194.49 Deg 1.71 ug/m3
2021-08-01 01:00 11.97 ug/m3 1.4 ug/m3 87.95 ug/m3 57.92 ug/m3 30.68 C 65.7 % 1,003.70 mbar 1.94 m/s 178.83 Deg 1.21 ug/m3
2021-07-31 01:00 18.6 ug/m3 2.04 ug/m3 68.76 ug/m3 55.82 ug/m3 31.28 C 44.82 % 1,005.71 mbar 1.99 m/s 256.03 Deg 2.89 ug/m3
2021-07-30 01:00 28.21 ug/m3 2.15 ug/m3 73.69 ug/m3 42.11 ug/m3 31.66 C 33.6 % 1,006.83 mbar 2.14 m/s 258.21 Deg 4.31 ug/m3
2021-07-29 01:00 23.46 ug/m3 1.9 ug/m3 83.3 ug/m3 28.25 ug/m3 29.87 C 40.97 % 1,007.89 mbar 2.25 m/s 216.87 Deg 2.59 ug/m3
2021-07-28 01:00 11.52 ug/m3 N/A 87.92 ug/m3 21.01 ug/m3 27.57 C 77.4 % 1,009.80 mbar 1.89 m/s 156.51 Deg 1.02 ug/m3
2021-07-27 01:00 4.54 ug/m3 N/A 74.74 ug/m3 21.51 ug/m3 26.72 C 86.48 % 1,008.56 mbar 3.54 m/s 158.97 Deg 0.81 ug/m3
2021-07-26 01:00 13.19 ug/m3 1.61 ug/m3 75.84 ug/m3 29.6 ug/m3 27.93 C 62.9 % 1,007.03 mbar 1.93 m/s 193 Deg 1.28 ug/m3
2021-07-25 01:00 12.53 ug/m3 1.59 ug/m3 88.74 ug/m3 28.38 ug/m3 27.99 C 58.66 % 1,007.00 mbar 2.02 m/s 209.21 Deg 1.4 ug/m3
2021-07-24 01:00 9.52 ug/m3 1.5 ug/m3 92.51 ug/m3 29.33 ug/m3 27.38 C 67.92 % 1,007.50 mbar 2.37 m/s 145.66 Deg 0.96 ug/m3
2021-07-23 01:00 15.28 ug/m3 1.48 ug/m3 85.64 ug/m3 22.4 ug/m3 27.87 C 64.14 % 1,008.72 mbar 2.2 m/s 218.31 Deg 1.99 ug/m3
2021-07-22 01:00 10.07 ug/m3 1.37 ug/m3 88.81 ug/m3 26.85 ug/m3 26.47 C 77.97 % 1,008.84 mbar 2.34 m/s 181.14 Deg 1.2 ug/m3
2021-07-21 01:00 6.42 ug/m3 1.26 ug/m3 97.96 ug/m3 30.18 ug/m3 25.22 C 86.01 % 1,005.63 mbar 2.16 m/s 157.62 Deg 0.84 ug/m3
2021-07-20 01:00 9.46 ug/m3 N/A 95.81 ug/m3 25.05 ug/m3 25.25 C 77.85 % 1,001.83 mbar 2.88 m/s 229.89 Deg 1.27 ug/m3
2021-07-19 01:00 4.88 ug/m3 1.33 ug/m3 99.03 ug/m3 36.24 ug/m3 25 C 78.95 % 999.36 mbar 4.38 m/s 300.37 Deg 0.66 ug/m3
2021-07-18 01:00 5.65 ug/m3 1.35 ug/m3 87.86 ug/m3 44.36 ug/m3 24.95 C 74.55 % 1,002.89 mbar 4.26 m/s 301.86 Deg 0.98 ug/m3
2021-07-17 01:00 11.56 ug/m3 N/A 70.3 ug/m3 33.01 ug/m3 26.45 C 69.76 % 1,005.45 mbar 2.98 m/s 256.3 Deg 3.17 ug/m3
2021-07-16 01:00 10.83 ug/m3 N/A 69.1 ug/m3 28.67 ug/m3 26.43 C 75.01 % 1,007.04 mbar 2.37 m/s 185.73 Deg 1.56 ug/m3
2021-07-15 01:00 14.33 ug/m3 1.39 ug/m3 74.39 ug/m3 39.41 ug/m3 27.68 C 77.46 % 1,006.10 mbar 2.12 m/s 224.69 Deg 2.15 ug/m3
2021-07-14 01:00 9.02 ug/m3 1.2 ug/m3 0 ug/m3 29.66 ug/m3 27.22 C 84.07 % 1,005.74 mbar 2.95 m/s 204.09 Deg 1.78 ug/m3
2021-07-13 01:00 10.62 ug/m3 1.35 ug/m3 58.11 ug/m3 35.18 ug/m3 26.62 C 86.75 % 1,006.75 mbar 2.66 m/s 173.35 Deg 1.96 ug/m3
2021-07-12 01:00 11.87 ug/m3 1.48 ug/m3 72.27 ug/m3 24.69 ug/m3 26.77 C 70.91 % 1,005.67 mbar 2.65 m/s 146.13 Deg 1.77 ug/m3
2021-07-11 01:00 13.66 ug/m3 1.5 ug/m3 70.18 ug/m3 28.6 ug/m3 27.65 C 72.67 % 1,005.74 mbar 2.61 m/s 218.07 Deg 1.84 ug/m3
2021-07-10 01:00 N/A N/A 62.97 ug/m3 N/A 29.63 C 60.33 % 1,008.85 mbar 2.5 m/s 292.09 Deg N/A
2021-07-09 01:00 22.58 ug/m3 N/A 50.97 ug/m3 30.12 ug/m3 27.9 C 76.68 % 1,009.92 mbar 1.54 m/s 226.77 Deg 3.96 ug/m3
2021-07-08 01:00 13.21 ug/m3 1.67 ug/m3 80.39 ug/m3 26.35 ug/m3 27.78 C 71.98 % 1,007.48 mbar 2.27 m/s 169.06 Deg 1.84 ug/m3
2021-07-07 01:00 13.43 ug/m3 1.63 ug/m3 82.45 ug/m3 26.64 ug/m3 26.98 C 72.54 % 1,005.85 mbar 1.92 m/s 101.44 Deg 1.9 ug/m3
2021-07-06 01:00 15.72 ug/m3 1.71 ug/m3 75.79 ug/m3 39.06 ug/m3 28.11 C 71.14 % 1,003.85 mbar 3.43 m/s 232.95 Deg 1.8 ug/m3
2021-07-05 01:00 11.64 ug/m3 1.85 ug/m3 87.48 ug/m3 31.39 ug/m3 28.87 C 65.77 % 1,006.09 mbar 2.14 m/s 226.98 Deg 1.17 ug/m3
2021-07-04 01:00 19.98 ug/m3 1.84 ug/m3 91.7 ug/m3 37.21 ug/m3 28.6 C 57.79 % 1,007.45 mbar 2.05 m/s 181.72 Deg 1.83 ug/m3

It is to be noted that the data is provisional and subject to quality assurance procedures. For validated data kindly refer your request to contact.air@era.org.mt